Time;durP1;ratioP1;P1;durP2;ratioP2;P2;SDS_P1;SDS_P2;PMS_P1;PMS_P2;Temp;Humidity;BMP_temperature;BMP_pressure;BME280_temperature;BME280_humidity;BME280_pressure;Samples;Min_cycle;Max_cycle;Signal;HPM_P1;HPM_P2
2021/08/16 00:00:00;;;;;;;9.40;2.37;;;17.00;1.00;;;;;;5006780;28;20907;-49
2021/08/16 00:02:27;;;;;;;5.60;2.00;;;17.00;1.00;;;;;;5007252;28;20268;-48
2021/08/16 00:04:54;;;;;;;10.77;2.57;;;16.90;1.00;;;;;;5006765;28;20633;-49
2021/08/16 00:07:20;;;;;;;7.93;2.63;;;16.90;1.00;;;;;;5006147;28;20262;-49
2021/08/16 00:09:48;;;;;;;8.23;2.17;;;16.80;54.90;;;;;;5007498;28;20257;-49
2021/08/16 00:12:15;;;;;;;8.63;2.37;;;17.00;1.00;;;;;;5007584;28;20244;-48
2021/08/16 00:14:42;;;;;;;8.93;2.40;;;16.80;27.70;;;;;;5007061;28;20547;-49
2021/08/16 00:17:09;;;;;;;9.50;2.17;;;16.80;64.50;;;;;;5007174;28;20216;-49
2021/08/16 00:19:36;;;;;;;8.20;2.67;;;16.90;1.00;;;;;;5006646;28;20580;-49
2021/08/16 00:22:03;;;;;;;11.73;2.20;;;17.00;1.00;;;;;;5006915;28;20553;-49
2021/08/16 00:24:30;;;;;;;8.80;2.40;;;16.90;1.00;;;;;;5006918;28;20291;-49
2021/08/16 00:26:58;;;;;;;10.27;2.37;;;16.90;58.90;;;;;;5007032;28;20203;-49
2021/08/16 00:29:25;;;;;;;8.23;2.03;;;16.90;57.50;;;;;;5006648;28;20265;-49
2021/08/16 00:31:52;;;;;;;5.67;2.53;;;16.90;53.90;;;;;;5013736;28;20296;-48
2021/08/16 00:34:19;;;;;;;6.07;2.50;;;17.00;58.60;;;;;;5006356;28;20243;-49
2021/08/16 00:36:46;;;;;;;10.10;2.30;;;16.90;74.90;;;;;;5006683;28;20275;-48
2021/08/16 00:39:12;;;;;;;6.77;2.27;;;16.90;99.60;;;;;;5006379;28;20312;-49
2021/08/16 00:41:39;;;;;;;10.63;2.20;;;16.90;99.90;;;;;;5013198;28;20291;-48
2021/08/16 00:44:08;;;;;;;9.73;2.63;;;17.00;99.90;;;;;;5005034;28;20664;-49
2021/08/16 00:46:36;;;;;;;7.60;1.90;;;17.10;51.60;;;;;;5006588;28;20308;-49
2021/08/16 00:49:03;;;;;;;6.77;2.20;;;17.00;78.50;;;;;;5006067;28;20210;-49
2021/08/16 00:51:31;;;;;;;10.23;2.67;;;17.00;99.90;;;;;;5006420;28;20247;-49
2021/08/16 00:53:59;;;;;;;7.33;2.67;;;16.90;99.90;;;;;;5006749;28;20904;-49
2021/08/16 00:56:27;;;;;;;8.43;2.50;;;16.80;99.90;;;;;;5006322;28;20312;-48
2021/08/16 00:58:58;;;;;;;9.23;1.97;;;16.90;99.90;;;;;;5006942;28;20810;-48
2021/08/16 01:01:26;;;;;;;6.23;2.07;;;16.80;99.90;;;;;;5006542;28;20236;-49
2021/08/16 01:03:53;;;;;;;13.50;2.40;;;16.80;99.90;;;;;;5005916;28;20208;-49
2021/08/16 01:06:20;;;;;;;10.17;3.40;;;16.80;99.90;;;;;;5006688;28;20678;-49
2021/08/16 01:08:48;;;;;;;9.80;2.63;;;16.80;99.90;;;;;;5006907;28;20237;-49
2021/08/16 01:11:16;;;;;;;14.13;3.13;;;16.70;99.90;;;;;;5006455;28;20245;-49
2021/08/16 01:13:44;;;;;;;7.90;2.57;;;16.80;99.90;;;;;;5006898;28;20247;-49
2021/08/16 01:16:11;;;;;;;10.80;2.10;;;16.90;99.90;;;;;;5005425;28;20221;-48
2021/08/16 01:18:38;;;;;;;12.23;2.17;;;17.00;99.90;;;;;;5007780;28;20235;-49
2021/08/16 01:21:11;;;;;;;10.27;2.77;;;16.90;99.90;;;;;;5009936;28;20215;-48
2021/08/16 01:23:39;;;;;;;9.07;2.90;;;16.80;99.90;;;;;;5010702;28;20294;-49
2021/08/16 01:26:06;;;;;;;8.03;2.13;;;16.80;99.90;;;;;;5010735;28;20242;-49
2021/08/16 01:28:33;;;;;;;11.00;2.67;;;16.80;99.90;;;;;;5009873;28;20243;-49
2021/08/16 01:31:03;;;;;;;11.80;2.50;;;16.90;99.90;;;;;;5010319;28;20240;-49
2021/08/16 01:33:30;;;;;;;10.60;2.00;;;16.80;99.90;;;;;;5010433;28;20606;-49
2021/08/16 01:35:58;;;;;;;11.73;2.80;;;16.90;99.90;;;;;;5009665;28;20306;-48
2021/08/16 01:38:30;;;;;;;16.00;2.77;;;16.90;99.90;;;;;;5010511;28;20272;-48
2021/08/16 01:40:57;;;;;;;8.57;2.60;;;16.80;99.90;;;;;;5009962;28;20288;-48
2021/08/16 01:43:24;;;;;;;10.93;2.33;;;16.80;99.90;;;;;;5009552;28;20233;-49
2021/08/16 01:45:52;;;;;;;11.73;2.67;;;16.80;99.90;;;;;;5009677;28;20257;-49
2021/08/16 01:48:19;;;;;;;12.07;3.47;;;16.90;99.90;;;;;;5009602;28;20280;-48
2021/08/16 01:50:47;;;;;;;10.50;2.87;;;16.80;99.90;;;;;;5008851;28;20299;-49
2021/08/16 01:53:14;;;;;;;9.00;2.57;;;16.80;99.90;;;;;;5009211;28;20304;-48
2021/08/16 01:55:41;;;;;;;8.53;2.67;;;16.70;99.90;;;;;;5009438;28;20305;-48
2021/08/16 01:58:09;;;;;;;13.70;2.80;;;16.70;99.90;;;;;;5009933;28;20263;-49
2021/08/16 02:00:37;;;;;;;9.90;2.67;;;16.70;99.90;;;;;;5009676;28;20214;-49
2021/08/16 02:03:05;;;;;;;7.47;1.90;;;16.60;99.90;;;;;;5010391;28;20605;-49
2021/08/16 02:05:32;;;;;;;16.10;2.67;;;16.60;99.90;;;;;;5008958;28;20668;-49
2021/08/16 02:08:00;;;;;;;8.97;2.47;;;16.60;99.90;;;;;;5009087;28;20311;-48
2021/08/16 02:10:27;;;;;;;9.03;2.53;;;16.60;99.90;;;;;;5009347;28;20230;-48
2021/08/16 02:12:54;;;;;;;11.27;2.87;;;16.60;99.90;;;;;;5009313;28;20253;-48
2021/08/16 02:15:21;;;;;;;10.23;2.60;;;16.60;99.90;;;;;;5009405;28;20224;-48
2021/08/16 02:17:48;;;;;;;9.70;2.20;;;16.70;99.90;;;;;;5009128;28;20288;-49
2021/08/16 02:20:16;;;;;;;10.30;2.90;;;16.80;99.90;;;;;;5009027;28;20244;-48
2021/08/16 02:22:42;;;;;;;9.43;2.33;;;16.70;99.90;;;;;;5009168;28;20234;-48
2021/08/16 02:25:10;;;;;;;11.10;2.87;;;16.70;99.90;;;;;;5009113;28;20247;-48
2021/08/16 02:27:43;;;;;;;9.00;2.40;;;16.80;99.90;;;;;;5009305;28;20247;-48
2021/08/16 02:30:11;;;;;;;8.63;2.20;;;16.90;99.90;;;;;;5007902;28;20228;-48
2021/08/16 02:32:38;;;;;;;8.73;2.30;;;16.80;99.90;;;;;;5008964;28;20281;-48
2021/08/16 02:35:06;;;;;;;13.67;2.63;;;16.90;99.90;;;;;;5008380;28;20305;-48
2021/08/16 02:37:33;;;;;;;10.70;3.10;;;16.80;99.90;;;;;;5008950;28;20295;-48
2021/08/16 02:40:00;;;;;;;9.53;2.70;;;16.90;99.90;;;;;;5008161;28;20287;-48
2021/08/16 02:42:26;;;;;;;15.80;2.97;;;17.00;99.90;;;;;;5008916;28;20233;-48
2021/08/16 02:44:53;;;;;;;10.03;2.57;;;17.00;99.90;;;;;;5008297;28;20239;-49
2021/08/16 02:47:21;;;;;;;11.03;2.87;;;17.00;99.90;;;;;;5008446;28;20349;-48
2021/08/16 02:49:49;;;;;;;7.17;2.50;;;16.90;99.90;;;;;;5008016;28;20278;-48
2021/08/16 02:52:17;;;;;;;15.10;2.43;;;16.90;99.90;;;;;;5009212;28;20242;-48
2021/08/16 02:54:45;;;;;;;9.30;3.40;;;17.10;99.90;;;;;;5008549;28;20212;-48
2021/08/16 02:57:13;;;;;;;12.27;2.40;;;17.10;99.90;;;;;;5009013;28;20310;-48
2021/08/16 02:59:40;;;;;;;7.93;2.37;;;17.20;99.90;;;;;;5008493;28;20648;-49
2021/08/16 03:02:08;;;;;;;12.37;2.93;;;17.20;99.90;;;;;;5009067;28;20209;-48
2021/08/16 03:04:35;;;;;;;7.67;2.60;;;17.10;99.90;;;;;;5007183;28;20287;-49
2021/08/16 03:07:03;;;;;;;10.93;2.90;;;17.00;99.90;;;;;;5008235;28;20711;-48
2021/08/16 03:09:30;;;;;;;9.00;2.70;;;16.90;99.90;;;;;;5008394;28;20258;-50
2021/08/16 03:11:57;;;;;;;13.73;2.90;;;17.00;99.90;;;;;;5008797;28;20258;-49
2021/08/16 03:14:24;;;;;;;13.40;3.07;;;17.10;99.90;;;;;;5008655;28;20216;-48
2021/08/16 03:16:51;;;;;;;11.87;3.70;;;17.00;99.90;;;;;;5008002;28;20250;-48
2021/08/16 03:19:20;;;;;;;15.27;3.50;;;17.00;99.90;;;;;;5007623;28;20214;-49
2021/08/16 03:21:47;;;;;;;11.70;3.23;;;16.90;99.90;;;;;;5008177;28;20268;-48
2021/08/16 03:24:14;;;;;;;10.93;3.77;;;16.90;99.90;;;;;;5008190;28;20204;-49
2021/08/16 03:26:41;;;;;;;10.03;3.60;;;16.90;99.90;;;;;;5007834;28;20243;-49
2021/08/16 03:29:08;;;;;;;9.90;3.00;;;17.00;99.90;;;;;;5007595;28;20299;-48
2021/08/16 03:31:35;;;;;;;12.47;3.27;;;16.90;99.90;;;;;;5008415;28;20233;-48
2021/08/16 03:34:02;;;;;;;15.50;3.37;;;17.00;99.90;;;;;;5007794;28;20216;-48
2021/08/16 03:36:29;;;;;;;13.53;3.43;;;17.00;99.90;;;;;;5008294;28;20283;-49
2021/08/16 03:38:56;;;;;;;8.30;3.67;;;17.00;99.90;;;;;;5007759;28;20289;-49
2021/08/16 03:41:22;;;;;;;16.50;3.70;;;17.10;99.90;;;;;;5007451;28;20287;-49
2021/08/16 03:43:49;;;;;;;10.80;3.90;;;17.10;99.90;;;;;;5006776;28;20290;-48
2021/08/16 03:46:16;;;;;;;10.77;3.60;;;17.00;99.90;;;;;;5007201;28;20291;-48
2021/08/16 03:48:43;;;;;;;9.23;3.97;;;17.00;99.90;;;;;;5007612;28;20208;-48
2021/08/16 03:51:11;;;;;;;13.07;3.90;;;17.10;99.90;;;;;;5007793;28;20267;-48
2021/08/16 03:53:38;;;;;;;17.30;4.20;;;17.10;99.90;;;;;;5007882;28;20239;-48
2021/08/16 03:56:06;;;;;;;12.87;4.43;;;17.20;99.90;;;;;;5007329;28;20249;-49
2021/08/16 03:58:33;;;;;;;10.80;4.77;;;17.10;99.90;;;;;;5007869;28;20239;-49
2021/08/16 04:01:00;;;;;;;11.30;4.70;;;17.00;99.90;;;;;;5007605;28;20208;-49
2021/08/16 04:03:27;;;;;;;12.33;4.93;;;17.00;99.90;;;;;;5007977;28;20740;-48
2021/08/16 04:05:54;;;;;;;11.77;5.87;;;17.10;99.90;;;;;;5006715;28;20706;-49
2021/08/16 04:08:21;;;;;;;12.03;5.87;;;17.00;99.90;;;;;;5007639;28;20220;-48
2021/08/16 04:10:48;;;;;;;10.73;5.80;;;17.10;99.90;;;;;;5006804;28;20710;-49
2021/08/16 04:13:14;;;;;;;12.30;6.10;;;17.20;99.90;;;;;;5007444;28;20212;-48
2021/08/16 04:15:41;;;;;;;11.07;6.27;;;17.10;99.90;;;;;;5007369;28;20678;-48
2021/08/16 04:18:08;;;;;;;11.90;6.47;;;17.10;99.90;;;;;;5007383;28;20200;-49
2021/08/16 04:20:35;;;;;;;10.23;6.00;;;17.20;99.90;;;;;;5006903;28;20283;-49
2021/08/16 04:23:02;;;;;;;12.73;6.80;;;17.20;99.90;;;;;;5006987;28;20338;-49
2021/08/16 04:25:29;;;;;;;13.37;6.73;;;17.10;99.90;;;;;;5007186;28;20326;-48
2021/08/16 04:27:56;;;;;;;11.67;6.60;;;17.10;99.90;;;;;;5007034;28;20258;-49
2021/08/16 04:30:22;;;;;;;14.10;7.10;;;17.00;99.90;;;;;;5007097;28;20242;-49
2021/08/16 04:32:49;;;;;;;16.13;7.33;;;17.10;99.90;;;;;;5007413;28;20277;-49
2021/08/16 04:35:16;;;;;;;15.60;7.07;;;17.20;99.90;;;;;;5006233;28;20299;-48
2021/08/16 04:37:43;;;;;;;16.73;6.87;;;17.10;99.90;;;;;;5006849;28;20264;-48
2021/08/16 04:40:10;;;;;;;11.80;6.73;;;17.10;99.90;;;;;;5006004;28;20208;-49
2021/08/16 04:42:38;;;;;;;19.47;7.30;;;17.10;99.90;;;;;;5006914;28;20626;-48
2021/08/16 04:45:06;;;;;;;16.83;6.43;;;17.00;99.90;;;;;;5006353;28;20240;-49
2021/08/16 04:47:33;;;;;;;15.83;7.93;;;17.00;99.90;;;;;;5006238;28;20851;-49
2021/08/16 04:50:00;;;;;;;14.87;7.43;;;17.00;99.90;;;;;;5006074;28;20454;-49
2021/08/16 04:52:27;;;;;;;13.53;7.33;;;17.00;99.90;;;;;;5006771;28;20233;-49
2021/08/16 04:54:54;;;;;;;15.23;6.63;;;17.10;99.90;;;;;;5005646;28;20238;-49
2021/08/16 04:57:32;;;;;;;12.87;7.20;;;17.10;99.90;;;;;;5006518;28;20252;-49
2021/08/16 04:59:59;;;;;;;13.70;7.53;;;17.10;99.90;;;;;;5006020;28;20236;-49
2021/08/16 05:02:26;;;;;;;17.83;7.70;;;17.10;99.90;;;;;;5006380;28;20299;-48
2021/08/16 05:04:55;;;;;;;12.73;7.77;;;17.00;99.90;;;;;;5005425;28;20207;-49
2021/08/16 05:07:22;;;;;;;18.83;8.33;;;17.00;99.90;;;;;;5006569;28;20292;-48
2021/08/16 05:09:52;;;;;;;14.90;7.70;;;17.00;99.90;;;;;;5006281;28;20207;-48
2021/08/16 05:12:19;;;;;;;15.60;8.40;;;17.10;99.90;;;;;;5006518;28;20208;-48
2021/08/16 05:14:46;;;;;;;18.80;9.60;;;17.10;99.90;;;;;;5006745;28;20250;-48
2021/08/16 05:17:13;;;;;;;11.07;7.87;;;17.00;99.90;;;;;;5006246;28;20216;-49
2021/08/16 05:19:40;;;;;;;17.80;8.40;;;17.10;99.90;;;;;;5006036;28;20211;-48
2021/08/16 05:22:08;;;;;;;14.13;9.00;;;17.10;99.90;;;;;;5006047;28;20200;-48
2021/08/16 05:24:35;;;;;;;14.37;9.03;;;17.00;99.90;;;;;;5006422;28;20284;-48
2021/08/16 05:27:03;;;;;;;18.13;9.27;;;17.00;99.90;;;;;;5006317;28;20240;-49
2021/08/16 05:29:31;;;;;;;15.77;9.97;;;17.00;99.90;;;;;;5005723;28;20295;-49
2021/08/16 05:31:58;;;;;;;14.00;9.43;;;17.00;99.90;;;;;;5006037;28;20315;-48
2021/08/16 05:34:25;;;;;;;19.63;10.03;;;17.00;99.90;;;;;;5005708;28;20228;-49
2021/08/16 05:36:52;;;;;;;15.80;8.70;;;17.00;99.90;;;;;;5005849;28;20224;-48
2021/08/16 05:39:18;;;;;;;15.10;9.10;;;17.10;99.90;;;;;;5006368;28;20700;-49
2021/08/16 05:41:45;;;;;;;17.33;9.30;;;17.20;99.90;;;;;;5005674;28;20296;-48
2021/08/16 05:44:12;;;;;;;17.90;10.07;;;17.20;99.90;;;;;;5005840;28;20292;-49
2021/08/16 05:46:39;;;;;;;16.20;9.97;;;17.20;99.90;;;;;;5005703;28;20269;-49
2021/08/16 05:49:06;;;;;;;18.37;10.57;;;17.20;99.90;;;;;;5006067;28;20211;-48
2021/08/16 05:51:32;;;;;;;21.47;10.20;;;17.20;99.90;;;;;;5006051;28;20243;-49
2021/08/16 05:53:59;;;;;;;18.30;9.80;;;17.30;99.90;;;;;;5006044;28;20300;-48
2021/08/16 05:56:26;;;;;;;19.33;9.67;;;17.40;99.90;;;;;;5005591;28;20261;-49
2021/08/16 05:58:55;;;;;;;15.03;10.13;;;17.30;99.90;;;;;;5005960;28;20732;-49
2021/08/16 06:01:22;;;;;;;15.53;10.57;;;17.30;99.90;;;;;;5001268;28;20213;-49
2021/08/16 06:03:49;;;;;;;16.53;9.30;;;17.30;99.90;;;;;;5005330;28;20208;-48
2021/08/16 06:06:15;;;;;;;17.40;10.43;;;17.20;99.90;;;;;;5006500;28;20666;-49
2021/08/16 06:08:43;;;;;;;17.63;9.37;;;17.20;99.90;;;;;;5009691;28;20253;-49
2021/08/16 06:11:09;;;;;;;15.10;9.60;;;17.30;99.90;;;;;;5009281;28;20291;-48
2021/08/16 06:13:36;;;;;;;18.03;10.57;;;17.30;99.90;;;;;;5009727;28;20306;-48
2021/08/16 06:16:03;;;;;;;17.73;10.57;;;17.30;99.90;;;;;;5009203;28;20295;-49
2021/08/16 06:18:30;;;;;;;17.50;10.13;;;17.30;99.90;;;;;;5009109;28;20203;-49
2021/08/16 06:20:57;;;;;;;15.77;9.90;;;17.40;99.90;;;;;;5008697;28;20319;-49
2021/08/16 06:23:24;;;;;;;16.70;9.50;;;17.30;99.90;;;;;;5009240;28;20617;-48
2021/08/16 06:25:50;;;;;;;16.67;9.50;;;17.40;99.90;;;;;;5008713;28;20252;-49
2021/08/16 06:28:17;;;;;;;16.80;10.43;;;17.30;99.90;;;;;;5009360;28;20313;-48
2021/08/16 06:30:44;;;;;;;15.03;9.40;;;17.30;99.90;;;;;;5008477;28;20240;-49
2021/08/16 06:33:11;;;;;;;21.17;9.43;;;17.40;99.90;;;;;;5009097;28;20243;-48
2021/08/16 06:35:38;;;;;;;15.30;8.97;;;17.40;99.90;;;;;;5009041;28;20625;-49
2021/08/16 06:38:12;;;;;;;14.40;8.53;;;17.30;99.90;;;;;;5009324;28;20649;-49
2021/08/16 06:40:39;;;;;;;14.07;7.93;;;17.30;99.90;;;;;;5009055;28;20231;-49
2021/08/16 06:43:05;;;;;;;13.63;9.23;;;17.40;99.90;;;;;;5009361;28;20300;-48
2021/08/16 06:45:32;;;;;;;22.30;9.60;;;17.30;99.90;;;;;;5009199;28;20199;-48
2021/08/16 06:47:59;;;;;;;17.23;9.13;;;17.20;99.90;;;;;;5008825;28;20716;-49
2021/08/16 06:50:26;;;;;;;18.77;9.37;;;17.20;99.90;;;;;;5008310;28;20341;-49
2021/08/16 06:52:53;;;;;;;13.83;9.43;;;17.20;99.90;;;;;;5008544;28;20303;-49
2021/08/16 06:55:20;;;;;;;21.23;10.30;;;17.10;99.90;;;;;;5008395;28;20254;-49
2021/08/16 06:57:46;;;;;;;18.37;10.83;;;17.00;99.90;;;;;;5008338;28;20230;-49
2021/08/16 07:00:15;;;;;;;20.03;11.17;;;17.10;99.90;;;;;;5008600;28;20207;-49
2021/08/16 07:02:42;;;;;;;15.50;10.20;;;16.90;99.90;;;;;;5008900;28;20697;-48
2021/08/16 07:05:09;;;;;;;19.40;10.03;;;16.90;99.90;;;;;;5008422;28;20708;-48
2021/08/16 07:07:36;;;;;;;17.83;9.13;;;16.90;99.90;;;;;;5008898;28;20244;-48
2021/08/16 07:10:03;;;;;;;19.27;11.43;;;16.90;99.90;;;;;;5009315;28;20266;-48
2021/08/16 07:12:30;;;;;;;15.67;9.73;;;16.80;99.90;;;;;;5008747;28;20212;-48
2021/08/16 07:14:57;;;;;;;17.77;9.93;;;16.80;99.90;;;;;;5009031;28;20237;-48
2021/08/16 07:17:23;;;;;;;14.50;9.90;;;16.80;99.90;;;;;;5007895;28;20262;-49
2021/08/16 07:19:50;;;;;;;21.77;10.27;;;16.80;99.90;;;;;;5008028;28;20208;-48
2021/08/16 07:22:17;;;;;;;18.33;11.20;;;17.00;99.90;;;;;;5008274;28;20246;-48
2021/08/16 07:24:45;;;;;;;8.87;4.93;;;17.00;99.90;;;;;;5008663;28;20443;-48
2021/08/16 07:27:12;;;;;;;5.73;3.53;;;16.80;99.90;;;;;;5008362;28;20213;-49
2021/08/16 07:29:38;;;;;;;4.17;2.37;;;16.80;99.90;;;;;;5008065;28;20197;-49
2021/08/16 07:32:05;;;;;;;2.57;2.00;;;16.60;99.90;;;;;;5007849;28;20231;-48
2021/08/16 07:34:34;;;;;;;3.07;1.37;;;16.70;99.90;;;;;;5007802;28;20864;-48
2021/08/16 07:37:01;;;;;;;3.13;1.67;;;16.60;99.90;;;;;;5008170;28;20328;-49
2021/08/16 07:39:30;;;;;;;2.73;1.40;;;16.60;99.90;;;;;;5008097;28;20200;-49
2021/08/16 07:41:57;;;;;;;2.07;1.20;;;16.80;99.90;;;;;;5007967;28;20244;-49
2021/08/16 07:44:23;;;;;;;3.00;1.60;;;16.90;99.90;;;;;;5007275;28;20258;-48
2021/08/16 07:46:51;;;;;;;2.70;1.93;;;16.90;99.90;;;;;;5007929;28;20277;-48
2021/08/16 07:49:18;;;;;;;4.13;2.60;;;16.90;99.90;;;;;;5007343;28;20571;-49
2021/08/16 07:51:44;;;;;;;4.93;2.60;;;17.00;99.90;;;;;;5007419;28;20679;-49
2021/08/16 07:54:11;;;;;;;3.83;2.77;;;17.10;99.90;;;;;;5007906;28;20234;-49
2021/08/16 07:56:38;;;;;;;6.20;2.60;;;17.10;99.90;;;;;;5007572;28;20218;-49
2021/08/16 07:59:05;;;;;;;2.37;2.10;;;17.20;99.90;;;;;;5007727;28;20565;-49
2021/08/16 08:01:32;;;;;;;2.97;2.43;;;17.10;99.90;;;;;;5008219;28;20238;-49
2021/08/16 08:03:59;;;;;;;3.03;1.63;;;17.10;99.90;;;;;;5007289;28;20201;-49
2021/08/16 08:06:26;;;;;;;2.30;1.30;;;17.10;99.90;;;;;;5007911;28;20250;-48
2021/08/16 08:08:53;;;;;;;4.27;1.50;;;16.80;99.90;;;;;;5007502;28;20217;-49
2021/08/16 08:11:19;;;;;;;1.53;1.40;;;16.90;99.90;;;;;;5007503;28;20250;-49
2021/08/16 08:13:46;;;;;;;2.47;1.50;;;16.90;99.90;;;;;;5006980;28;20211;-49
2021/08/16 08:16:13;;;;;;;2.87;1.40;;;16.90;99.90;;;;;;5007442;28;20238;-49
2021/08/16 08:18:40;;;;;;;1.47;1.00;;;16.90;99.90;;;;;;5007091;28;20265;-49
2021/08/16 08:21:07;;;;;;;3.43;1.23;;;16.90;99.90;;;;;;5006844;28;20199;-49
2021/08/16 08:23:34;;;;;;;2.17;1.30;;;16.80;99.90;;;;;;5007580;28;20287;-49
2021/08/16 08:26:00;;;;;;;2.43;1.50;;;16.80;99.90;;;;;;5007248;28;20280;-50
2021/08/16 08:28:27;;;;;;;3.17;1.40;;;16.80;99.90;;;;;;5006941;28;20245;-50
2021/08/16 08:30:54;;;;;;;1.83;1.50;;;16.80;99.90;;;;;;5007096;28;20208;-50
2021/08/16 08:33:21;;;;;;;2.63;2.00;;;16.90;99.90;;;;;;5007386;28;20337;-50
2021/08/16 08:35:49;;;;;;;6.00;2.13;;;17.00;99.90;;;;;;5006729;28;20672;-49
2021/08/16 08:38:17;;;;;;;3.67;1.70;;;17.00;99.90;;;;;;5007201;28;20256;-50
2021/08/16 08:40:44;;;;;;;6.10;2.30;;;16.90;99.90;;;;;;5006598;28;20195;-49
2021/08/16 08:43:14;;;;;;;3.67;1.93;;;17.00;99.90;;;;;;5006949;28;20250;-49
2021/08/16 08:45:42;;;;;;;3.40;1.90;;;16.90;99.90;;;;;;5007726;28;20690;-50
2021/08/16 08:48:10;;;;;;;6.57;2.10;;;17.00;99.90;;;;;;5006885;28;20244;-49
2021/08/16 08:50:39;;;;;;;5.53;2.60;;;17.00;99.90;;;;;;5006280;28;20212;-49
2021/08/16 08:53:06;;;;;;;3.77;2.10;;;17.00;99.90;;;;;;5006704;28;20243;-49
2021/08/16 08:55:33;;;;;;;5.40;2.47;;;17.10;99.90;;;;;;5006773;28;20297;-50
2021/08/16 08:58:19;;;;;;;4.47;2.33;;;17.00;99.90;;;;;;5007023;28;20279;-49
2021/08/16 09:00:46;;;;;;;7.73;2.17;;;16.90;99.90;;;;;;5006695;28;20673;-49
2021/08/16 09:03:13;;;;;;;6.10;2.80;;;16.90;99.90;;;;;;5007104;28;20208;-49
2021/08/16 09:05:52;;;;;;;5.17;2.17;;;16.90;99.90;;;;;;5006280;28;20230;-49
2021/08/16 09:08:31;;;;;;;4.50;2.00;;;16.80;99.90;;;;;;5006656;28;20230;-50
2021/08/16 09:11:12;;;;;;;4.87;2.27;;;16.90;99.90;;;;;;5006580;28;20289;-49
2021/08/16 09:13:55;;;;;;;7.57;2.50;;;17.00;99.90;;;;;;5007156;28;20234;-49
2021/08/16 09:16:24;;;;;;;4.03;2.17;;;17.00;99.90;;;;;;5006480;28;20239;-49
2021/08/16 09:18:51;;;;;;;8.10;2.73;;;17.00;99.90;;;;;;5006044;28;20657;-49
2021/08/16 09:21:35;;;;;;;11.20;3.10;;;17.10;99.90;;;;;;5006965;28;20269;-49
2021/08/16 09:24:04;;;;;;;6.47;2.30;;;17.20;99.90;;;;;;5006287;28;20736;-49
2021/08/16 09:26:35;;;;;;;6.20;2.47;;;17.10;99.90;;;;;;5006466;28;20659;-49
2021/08/16 09:29:22;;;;;;;4.37;2.40;;;17.10;99.90;;;;;;5006060;28;20261;-49
2021/08/16 09:32:01;;;;;;;7.57;2.20;;;17.40;99.90;;;;;;5005986;28;20260;-50
2021/08/16 09:34:42;;;;;;;5.07;2.70;;;17.30;99.90;;;;;;5005964;28;20298;-50
2021/08/16 09:37:25;;;;;;;4.90;2.37;;;17.40;99.90;;;;;;5006364;28;20202;-50
2021/08/16 09:40:08;;;;;;;9.23;2.97;;;17.30;99.90;;;;;;5007870;28;20554;-49
2021/08/16 09:42:52;;;;;;;6.83;2.73;;;17.40;99.90;;;;;;5009863;28;20288;-50
2021/08/16 09:45:31;;;;;;;6.13;2.80;;;17.40;99.90;;;;;;5009073;28;20226;-49
2021/08/16 09:48:01;;;;;;;6.23;2.63;;;17.40;99.90;;;;;;5009869;28;20700;-50
2021/08/16 09:50:44;;;;;;;8.17;2.60;;;17.30;99.90;;;;;;5009192;28;20263;-49
2021/08/16 09:53:19;;;;;;;8.93;2.97;;;17.20;99.90;;;;;;5010092;28;20214;-50
2021/08/16 09:55:50;;;;;;;5.40;2.60;;;17.30;99.90;;;;;;5009971;28;20235;-50
2021/08/16 09:58:18;;;;;;;5.30;2.90;;;17.20;99.90;;;;;;5009950;28;20228;-50
2021/08/16 10:00:51;;;;;;;5.23;2.33;;;17.30;99.90;;;;;;5010149;28;20251;-50
2021/08/16 10:03:19;;;;;;;8.80;2.33;;;17.20;99.90;;;;;;5009723;28;20208;-50
2021/08/16 10:05:49;;;;;;;8.80;3.00;;;17.30;99.90;;;;;;5009426;28;20687;-50
2021/08/16 10:08:22;;;;;;;5.83;2.93;;;17.50;99.90;;;;;;5009776;28;20656;-49
2021/08/16 10:10:52;;;;;;;4.40;2.47;;;17.70;99.90;;;;;;5009459;28;20270;-50
2021/08/16 10:13:22;;;;;;;4.23;2.97;;;17.60;99.90;;;;;;5009384;28;20212;-49
2021/08/16 10:16:08;;;;;;;4.47;2.90;;;17.70;99.90;;;;;;5009600;28;20272;-50
2021/08/16 10:18:44;;;;;;;6.67;2.90;;;17.50;99.90;;;;;;5009250;28;20286;-49
2021/08/16 10:21:16;;;;;;;12.93;2.90;;;17.50;99.90;;;;;;5009257;28;20311;-50
2021/08/16 10:23:48;;;;;;;6.27;3.20;;;17.50;99.90;;;;;;5009533;28;20711;-50
2021/08/16 10:26:30;;;;;;;5.60;2.73;;;17.40;99.90;;;;;;5010031;28;20257;-50
2021/08/16 10:29:03;;;;;;;5.17;3.13;;;17.50;99.90;;;;;;5009018;28;20205;-49
2021/08/16 10:31:32;;;;;;;5.40;2.73;;;17.60;99.90;;;;;;5008901;28;20267;-48
2021/08/16 10:34:00;;;;;;;6.43;3.07;;;17.90;99.90;;;;;;5008908;28;20682;-50
2021/08/16 10:36:27;;;;;;;7.40;3.20;;;18.00;99.90;;;;;;5009214;28;20284;-49
2021/08/16 10:38:57;;;;;;;8.90;3.87;;;18.10;99.90;;;;;;5009646;28;20631;-50
2021/08/16 10:41:27;;;;;;;8.60;3.37;;;18.00;99.90;;;;;;5008838;28;20656;-50
2021/08/16 10:43:55;;;;;;;5.53;3.50;;;18.10;99.90;;;;;;5008570;28;20638;-49
2021/08/16 10:46:23;;;;;;;8.33;3.40;;;18.10;99.90;;;;;;5008994;28;20267;-49
2021/08/16 10:49:02;;;;;;;6.53;3.57;;;18.10;99.90;;;;;;5009216;28;20212;-49
2021/08/16 10:51:42;;;;;;;10.30;3.93;;;18.20;99.90;;;;;;5008657;28;20284;-49
2021/08/16 10:54:20;;;;;;;8.13;3.90;;;18.40;99.90;;;;;;5009247;28;20329;-49
2021/08/16 10:56:50;;;;;;;9.47;4.87;;;18.50;99.90;;;;;;5009018;28;20254;-49
2021/08/16 10:59:19;;;;;;;7.10;3.90;;;18.40;99.90;;;;;;5008805;28;20308;-49
2021/08/16 11:01:47;;;;;;;7.10;4.20;;;18.30;99.90;;;;;;5009800;28;20300;-50
2021/08/16 11:04:35;;;;;;;6.67;4.03;;;18.30;99.90;;;;;;5007300;28;20573;-49
2021/08/16 11:07:08;;;;;;;7.97;4.33;;;18.40;99.90;;;;;;5008714;28;20205;-49
2021/08/16 11:09:38;;;;;;;7.13;4.40;;;18.30;99.90;;;;;;5008560;28;20208;-50
2021/08/16 11:12:13;;;;;;;7.57;4.50;;;18.20;99.90;;;;;;5008708;28;20285;-50
2021/08/16 11:14:42;;;;;;;8.07;4.70;;;17.90;99.90;;;;;;5008786;28;20212;-50
2021/08/16 11:17:09;;;;;;;7.07;4.63;;;17.90;99.90;;;;;;5008618;28;20291;-49
2021/08/16 11:19:45;;;;;;;9.33;5.17;;;17.70;99.90;;;;;;5007569;28;20219;-50
2021/08/16 11:22:13;;;;;;;12.90;4.50;;;17.60;99.90;;;;;;5008171;28;20699;-49
2021/08/16 11:24:42;;;;;;;8.40;4.30;;;17.50;99.90;;;;;;5008357;28;20434;-49
2021/08/16 11:27:17;;;;;;;11.50;5.47;;;17.50;99.90;;;;;;5008842;28;20287;-49
2021/08/16 11:29:55;;;;;;;8.43;5.00;;;17.70;99.90;;;;;;5007977;28;20303;-49
2021/08/16 11:32:25;;;;;;;11.57;5.07;;;17.60;99.90;;;;;;5008576;28;20262;-49
2021/08/16 11:34:55;;;;;;;15.83;5.63;;;17.70;99.90;;;;;;5007186;28;20292;-49
2021/08/16 11:37:33;;;;;;;11.83;6.03;;;17.80;99.90;;;;;;5015586;28;20257;-50
2021/08/16 11:40:01;;;;;;;12.17;5.97;;;17.70;99.90;;;;;;5007237;28;20202;-49
2021/08/16 11:42:44;;;;;;;12.97;6.23;;;17.60;99.90;;;;;;5008441;28;20293;-49
2021/08/16 11:45:15;;;;;;;9.10;5.50;;;17.50;99.90;;;;;;5008330;28;20353;-49
2021/08/16 11:47:44;;;;;;;13.80;6.27;;;17.60;99.90;;;;;;5007615;28;20279;-49
2021/08/16 11:50:31;;;;;;;12.07;6.00;;;17.60;99.90;;;;;;5007624;28;20244;-50
2021/08/16 11:52:58;;;;;;;11.33;5.70;;;17.60;99.90;;;;;;5007909;28;20203;-49
2021/08/16 11:55:28;;;;;;;11.83;5.53;;;17.50;99.90;;;;;;5007178;28;20237;-50
2021/08/16 11:57:55;;;;;;;8.03;4.20;;;17.60;99.90;;;;;;5007932;28;20440;-50
2021/08/16 12:00:24;;;;;;;6.00;3.07;;;17.50;99.90;;;;;;5007997;28;20291;-49
2021/08/16 12:02:55;;;;;;;5.77;2.80;;;17.20;99.90;;;;;;5006990;28;20205;-49
2021/08/16 12:05:24;;;;;;;6.13;2.83;;;16.90;99.90;;;;;;5007098;28;20256;-50
2021/08/16 12:07:51;;;;;;;5.00;3.17;;;16.80;99.90;;;;;;5007122;28;20247;-49
2021/08/16 12:10:20;;;;;;;4.97;3.33;;;16.70;99.90;;;;;;5007159;28;20649;-49
2021/08/16 12:13:03;;;;;;;4.37;2.77;;;16.50;99.90;;;;;;5007171;28;20211;-49
2021/08/16 12:15:40;;;;;;;4.93;2.87;;;16.50;99.90;;;;;;5007294;28;20199;-50
2021/08/16 12:18:08;;;;;;;4.67;2.40;;;16.40;99.90;;;;;;5006785;28;20296;-49
2021/08/16 12:20:42;;;;;;;5.47;2.80;;;16.30;99.90;;;;;;5006423;28;20200;-49
2021/08/16 12:23:10;;;;;;;5.10;2.27;;;16.50;99.90;;;;;;5006892;28;20809;-49
2021/08/16 12:25:48;;;;;;;5.90;3.17;;;16.60;99.90;;;;;;5006756;28;20278;-49
2021/08/16 12:28:15;;;;;;;5.07;2.63;;;16.50;99.90;;;;;;5007102;28;20249;-49
2021/08/16 12:30:42;;;;;;;5.53;2.70;;;16.50;99.90;;;;;;5006867;28;20247;-49
2021/08/16 12:33:14;;;;;;;4.57;2.50;;;16.40;99.90;;;;;;5007537;28;20255;-50
2021/08/16 12:35:53;;;;;;;5.97;2.80;;;16.50;99.90;;;;;;5006441;28;20306;-49
2021/08/16 12:38:26;;;;;;;9.33;2.90;;;16.70;99.90;;;;;;5006801;28;20292;-49
2021/08/16 12:41:06;;;;;;;4.70;2.73;;;16.70;99.90;;;;;;5006486;28;20615;-49
2021/08/16 12:43:37;;;;;;;6.93;2.80;;;16.80;99.90;;;;;;5006867;28;20195;-49
2021/08/16 12:46:03;;;;;;;6.20;2.80;;;16.80;99.90;;;;;;5007329;28;20246;-49
2021/08/16 12:48:41;;;;;;;8.43;2.80;;;17.00;99.90;;;;;;5006819;28;20260;-49